sensor_id;sensor_type;location;lat;lon;timestamp;P1;durP1;ratioP1;P2;durP2;ratioP2
57573;SDS011;68988;49.000;21.242;2023-04-20T00:01:50;1.20;;;1.10;;
57573;SDS011;68988;49.000;21.242;2023-04-20T00:04:16;1.00;;;1.00;;
57573;SDS011;68988;49.000;21.242;2023-04-20T00:06:42;0.93;;;0.90;;
57573;SDS011;68988;49.000;21.242;2023-04-20T00:09:12;1.55;;;1.38;;
57573;SDS011;68988;49.000;21.242;2023-04-20T00:11:38;1.40;;;1.30;;
57573;SDS011;68988;49.000;21.242;2023-04-20T00:14:04;1.30;;;1.20;;
57573;SDS011;68988;49.000;21.242;2023-04-20T00:16:29;1.48;;;1.38;;
57573;SDS011;68988;49.000;21.242;2023-04-20T00:18:55;1.88;;;1.20;;
57573;SDS011;68988;49.000;21.242;2023-04-20T00:21:21;1.10;;;1.10;;
57573;SDS011;68988;49.000;21.242;2023-04-20T00:23:48;1.10;;;1.00;;
57573;SDS011;68988;49.000;21.242;2023-04-20T00:26:14;1.30;;;1.20;;
57573;SDS011;68988;49.000;21.242;2023-04-20T00:28:41;1.25;;;1.10;;
57573;SDS011;68988;49.000;21.242;2023-04-20T00:31:06;1.42;;;1.33;;
57573;SDS011;68988;49.000;21.242;2023-04-20T00:33:32;1.20;;;1.10;;
57573;SDS011;68988;49.000;21.242;2023-04-20T00:35:57;1.40;;;1.10;;
57573;SDS011;68988;49.000;21.242;2023-04-20T00:38:22;1.30;;;1.20;;
57573;SDS011;68988;49.000;21.242;2023-04-20T00:40:48;1.20;;;1.10;;
57573;SDS011;68988;49.000;21.242;2023-04-20T00:43:17;1.08;;;1.02;;
57573;SDS011;68988;49.000;21.242;2023-04-20T00:45:44;1.02;;;1.02;;
57573;SDS011;68988;49.000;21.242;2023-04-20T00:48:10;1.20;;;1.10;;
57573;SDS011;68988;49.000;21.242;2023-04-20T00:50:35;2.53;;;1.05;;
57573;SDS011;68988;49.000;21.242;2023-04-20T00:53:02;0.85;;;0.85;;
57573;SDS011;68988;49.000;21.242;2023-04-20T00:55:28;1.48;;;1.25;;
57573;SDS011;68988;49.000;21.242;2023-04-20T00:57:54;1.00;;;1.00;;
57573;SDS011;68988;49.000;21.242;2023-04-20T01:00:20;1.00;;;1.00;;
57573;SDS011;68988;49.000;21.242;2023-04-20T01:02:46;1.27;;;1.17;;
57573;SDS011;68988;49.000;21.242;2023-04-20T01:05:11;1.10;;;1.10;;
57573;SDS011;68988;49.000;21.242;2023-04-20T01:07:37;1.10;;;1.10;;
57573;SDS011;68988;49.000;21.242;2023-04-20T01:10:04;1.30;;;1.27;;
57573;SDS011;68988;49.000;21.242;2023-04-20T01:12:30;1.23;;;1.17;;
57573;SDS011;68988;49.000;21.242;2023-04-20T01:14:56;1.40;;;1.20;;
57573;SDS011;68988;49.000;21.242;2023-04-20T01:17:21;1.40;;;1.30;;
57573;SDS011;68988;49.000;21.242;2023-04-20T01:19:48;1.10;;;1.10;;
57573;SDS011;68988;49.000;21.242;2023-04-20T01:22:17;1.35;;;1.10;;
57573;SDS011;68988;49.000;21.242;2023-04-20T01:24:44;1.15;;;1.05;;
57573;SDS011;68988;49.000;21.242;2023-04-20T01:27:10;1.30;;;1.20;;
57573;SDS011;68988;49.000;21.242;2023-04-20T01:29:36;1.15;;;1.10;;
57573;SDS011;68988;49.000;21.242;2023-04-20T01:32:01;0.93;;;0.93;;
57573;SDS011;68988;49.000;21.242;2023-04-20T01:34:27;1.17;;;1.17;;
57573;SDS011;68988;49.000;21.242;2023-04-20T01:36:53;1.05;;;1.02;;
57573;SDS011;68988;49.000;21.242;2023-04-20T01:39:18;1.40;;;1.30;;
57573;SDS011;68988;49.000;21.242;2023-04-20T01:41:43;1.10;;;1.00;;
57573;SDS011;68988;49.000;21.242;2023-04-20T01:44:09;1.17;;;1.17;;
57573;SDS011;68988;49.000;21.242;2023-04-20T01:46:38;1.00;;;1.00;;
57573;SDS011;68988;49.000;21.242;2023-04-20T01:49:04;1.00;;;1.00;;
57573;SDS011;68988;49.000;21.242;2023-04-20T01:51:31;1.13;;;1.02;;
57573;SDS011;68988;49.000;21.242;2023-04-20T01:53:57;1.02;;;1.02;;
57573;SDS011;68988;49.000;21.242;2023-04-20T01:56:23;1.10;;;1.10;;
57573;SDS011;68988;49.000;21.242;2023-04-20T01:58:48;0.95;;;0.95;;
57573;SDS011;68988;49.000;21.242;2023-04-20T02:01:14;1.40;;;1.30;;
57573;SDS011;68988;49.000;21.242;2023-04-20T02:03:39;1.30;;;1.20;;
57573;SDS011;68988;49.000;21.242;2023-04-20T02:06:04;1.30;;;1.20;;
57573;SDS011;68988;49.000;21.242;2023-04-20T02:08:31;1.00;;;1.00;;
57573;SDS011;68988;49.000;21.242;2023-04-20T02:10:57;1.08;;;1.08;;
57573;SDS011;68988;49.000;21.242;2023-04-20T02:13:23;1.48;;;1.38;;
57573;SDS011;68988;49.000;21.242;2023-04-20T02:15:48;1.50;;;1.40;;
57573;SDS011;68988;49.000;21.242;2023-04-20T02:18:13;1.00;;;1.00;;
57573;SDS011;68988;49.000;21.242;2023-04-20T02:20:40;1.10;;;1.10;;
57573;SDS011;68988;49.000;21.242;2023-04-20T02:23:06;2.95;;;1.02;;
57573;SDS011;68988;49.000;21.242;2023-04-20T02:25:32;1.05;;;1.05;;
57573;SDS011;68988;49.000;21.242;2023-04-20T02:27:57;1.33;;;1.10;;
57573;SDS011;68988;49.000;21.242;2023-04-20T02:30:22;2.25;;;1.20;;
57573;SDS011;68988;49.000;21.242;2023-04-20T02:32:48;1.27;;;1.20;;
57573;SDS011;68988;49.000;21.242;2023-04-20T02:35:13;0.95;;;0.95;;
57573;SDS011;68988;49.000;21.242;2023-04-20T02:37:38;1.30;;;1.20;;
57573;SDS011;68988;49.000;21.242;2023-04-20T02:40:05;1.20;;;1.20;;
57573;SDS011;68988;49.000;21.242;2023-04-20T02:42:31;1.10;;;1.10;;
57573;SDS011;68988;49.000;21.242;2023-04-20T02:44:57;1.17;;;1.10;;
57573;SDS011;68988;49.000;21.242;2023-04-20T02:47:22;1.25;;;1.15;;
57573;SDS011;68988;49.000;21.242;2023-04-20T02:49:47;1.15;;;1.15;;
57573;SDS011;68988;49.000;21.242;2023-04-20T02:52:13;1.80;;;1.65;;
57573;SDS011;68988;49.000;21.242;2023-04-20T02:54:38;0.88;;;0.88;;
57573;SDS011;68988;49.000;21.242;2023-04-20T02:57:04;1.00;;;1.00;;
57573;SDS011;68988;49.000;21.242;2023-04-20T02:59:30;1.35;;;1.25;;
57573;SDS011;68988;49.000;21.242;2023-04-20T03:01:55;1.45;;;1.35;;
57573;SDS011;68988;49.000;21.242;2023-04-20T03:04:20;1.30;;;1.20;;
57573;SDS011;68988;49.000;21.242;2023-04-20T03:06:46;1.20;;;1.17;;
57573;SDS011;68988;49.000;21.242;2023-04-20T03:09:14;1.13;;;1.13;;
57573;SDS011;68988;49.000;21.242;2023-04-20T03:11:39;1.35;;;1.30;;
57573;SDS011;68988;49.000;21.242;2023-04-20T03:14:05;1.08;;;1.08;;
57573;SDS011;68988;49.000;21.242;2023-04-20T03:16:30;1.08;;;1.00;;
57573;SDS011;68988;49.000;21.242;2023-04-20T03:18:56;1.30;;;1.20;;
57573;SDS011;68988;49.000;21.242;2023-04-20T03:21:21;0.95;;;0.95;;
57573;SDS011;68988;49.000;21.242;2023-04-20T03:23:47;1.20;;;1.20;;
57573;SDS011;68988;49.000;21.242;2023-04-20T03:26:13;1.10;;;1.10;;
57573;SDS011;68988;49.000;21.242;2023-04-20T03:28:38;1.30;;;1.20;;
57573;SDS011;68988;49.000;21.242;2023-04-20T03:31:04;1.05;;;1.00;;
57573;SDS011;68988;49.000;21.242;2023-04-20T03:33:30;1.10;;;1.10;;
57573;SDS011;68988;49.000;21.242;2023-04-20T03:35:56;1.40;;;1.30;;
57573;SDS011;68988;49.000;21.242;2023-04-20T03:38:21;1.20;;;1.10;;
57573;SDS011;68988;49.000;21.242;2023-04-20T03:40:47;1.40;;;1.10;;
57573;SDS011;68988;49.000;21.242;2023-04-20T03:43:12;0.93;;;0.93;;
57573;SDS011;68988;49.000;21.242;2023-04-20T03:45:37;1.20;;;1.20;;
57573;SDS011;68988;49.000;21.242;2023-04-20T03:48:03;1.17;;;1.08;;
57573;SDS011;68988;49.000;21.242;2023-04-20T03:50:29;1.30;;;1.30;;
57573;SDS011;68988;49.000;21.242;2023-04-20T03:52:54;1.00;;;1.00;;
57573;SDS011;68988;49.000;21.242;2023-04-20T03:55:20;1.38;;;1.13;;
57573;SDS011;68988;49.000;21.242;2023-04-20T03:57:45;1.10;;;1.10;;
57573;SDS011;68988;49.000;21.242;2023-04-20T04:00:11;1.58;;;1.23;;
57573;SDS011;68988;49.000;21.242;2023-04-20T04:02:37;1.30;;;1.20;;
57573;SDS011;68988;49.000;21.242;2023-04-20T04:05:02;1.00;;;1.00;;
57573;SDS011;68988;49.000;21.242;2023-04-20T04:07:28;1.00;;;1.00;;
57573;SDS011;68988;49.000;21.242;2023-04-20T04:09:53;1.23;;;1.20;;
57573;SDS011;68988;49.000;21.242;2023-04-20T04:12:18;0.90;;;0.90;;
57573;SDS011;68988;49.000;21.242;2023-04-20T04:14:44;1.17;;;1.17;;
57573;SDS011;68988;49.000;21.242;2023-04-20T04:17:10;1.67;;;1.10;;
57573;SDS011;68988;49.000;21.242;2023-04-20T04:19:37;1.40;;;1.30;;
57573;SDS011;68988;49.000;21.242;2023-04-20T04:22:02;1.10;;;1.10;;
57573;SDS011;68988;49.000;21.242;2023-04-20T04:24:28;1.35;;;1.25;;
57573;SDS011;68988;49.000;21.242;2023-04-20T04:26:53;1.05;;;1.05;;
57573;SDS011;68988;49.000;21.242;2023-04-20T04:29:20;1.20;;;1.10;;
57573;SDS011;68988;49.000;21.242;2023-04-20T04:31:46;0.90;;;0.90;;
57573;SDS011;68988;49.000;21.242;2023-04-20T04:34:11;1.30;;;1.30;;
57573;SDS011;68988;49.000;21.242;2023-04-20T04:36:37;1.10;;;1.10;;
57573;SDS011;68988;49.000;21.242;2023-04-20T04:39:03;1.15;;;1.15;;
57573;SDS011;68988;49.000;21.242;2023-04-20T04:41:28;1.10;;;1.10;;
57573;SDS011;68988;49.000;21.242;2023-04-20T04:43:53;1.23;;;1.13;;
57573;SDS011;68988;49.000;21.242;2023-04-20T04:46:19;1.00;;;1.00;;
57573;SDS011;68988;49.000;21.242;2023-04-20T04:48:45;1.00;;;1.00;;
57573;SDS011;68988;49.000;21.242;2023-04-20T04:51:10;0.90;;;0.90;;
57573;SDS011;68988;49.000;21.242;2023-04-20T04:53:36;1.08;;;1.02;;
57573;SDS011;68988;49.000;21.242;2023-04-20T04:56:02;1.38;;;1.27;;
57573;SDS011;68988;49.000;21.242;2023-04-20T04:58:28;1.30;;;1.20;;
57573;SDS011;68988;49.000;21.242;2023-04-20T05:00:53;1.20;;;1.10;;
57573;SDS011;68988;49.000;21.242;2023-04-20T05:03:19;7.53;;;7.00;;
57573;SDS011;68988;49.000;21.242;2023-04-20T05:05:45;3.53;;;3.33;;
57573;SDS011;68988;49.000;21.242;2023-04-20T05:08:10;3.00;;;2.80;;
57573;SDS011;68988;49.000;21.242;2023-04-20T05:10:36;3.28;;;2.63;;
57573;SDS011;68988;49.000;21.242;2023-04-20T05:13:01;3.15;;;2.90;;
57573;SDS011;68988;49.000;21.242;2023-04-20T05:15:27;3.00;;;2.65;;
57573;SDS011;68988;49.000;21.242;2023-04-20T05:17:52;2.20;;;2.10;;
57573;SDS011;68988;49.000;21.242;2023-04-20T05:20:17;2.50;;;2.40;;
57573;SDS011;68988;49.000;21.242;2023-04-20T05:22:43;4.53;;;2.20;;
57573;SDS011;68988;49.000;21.242;2023-04-20T05:25:09;2.55;;;2.35;;
57573;SDS011;68988;49.000;21.242;2023-04-20T05:27:35;5.03;;;2.13;;
57573;SDS011;68988;49.000;21.242;2023-04-20T05:30:01;2.65;;;2.20;;
57573;SDS011;68988;49.000;21.242;2023-04-20T05:32:27;2.20;;;2.10;;
57573;SDS011;68988;49.000;21.242;2023-04-20T05:34:53;4.20;;;2.30;;
57573;SDS011;68988;49.000;21.242;2023-04-20T05:37:18;2.97;;;2.08;;
57573;SDS011;68988;49.000;21.242;2023-04-20T05:39:43;4.78;;;2.08;;
57573;SDS011;68988;49.000;21.242;2023-04-20T05:42:09;2.97;;;1.85;;
57573;SDS011;68988;49.000;21.242;2023-04-20T05:44:34;4.00;;;2.03;;
57573;SDS011;68988;49.000;21.242;2023-04-20T05:47:00;3.53;;;1.80;;
57573;SDS011;68988;49.000;21.242;2023-04-20T05:49:26;4.15;;;1.80;;
57573;SDS011;68988;49.000;21.242;2023-04-20T05:51:52;11.55;;;1.95;;
57573;SDS011;68988;49.000;21.242;2023-04-20T05:54:17;6.47;;;2.10;;
57573;SDS011;68988;49.000;21.242;2023-04-20T05:56:43;8.60;;;2.47;;
57573;SDS011;68988;49.000;21.242;2023-04-20T05:59:08;4.45;;;2.10;;
57573;SDS011;68988;49.000;21.242;2023-04-20T06:01:34;5.20;;;2.25;;
57573;SDS011;68988;49.000;21.242;2023-04-20T06:03:59;2.40;;;2.17;;
57573;SDS011;68988;49.000;21.242;2023-04-20T06:06:25;7.60;;;1.98;;
57573;SDS011;68988;49.000;21.242;2023-04-20T06:08:50;6.53;;;1.85;;
57573;SDS011;68988;49.000;21.242;2023-04-20T06:11:16;3.03;;;2.10;;
57573;SDS011;68988;49.000;21.242;2023-04-20T06:13:42;2.97;;;2.00;;
57573;SDS011;68988;49.000;21.242;2023-04-20T06:16:07;3.28;;;2.08;;
57573;SDS011;68988;49.000;21.242;2023-04-20T06:18:34;4.63;;;1.95;;
57573;SDS011;68988;49.000;21.242;2023-04-20T06:21:01;6.18;;;1.90;;
57573;SDS011;68988;49.000;21.242;2023-04-20T06:23:27;2.10;;;2.00;;
57573;SDS011;68988;49.000;21.242;2023-04-20T06:25:53;4.93;;;1.67;;
57573;SDS011;68988;49.000;21.242;2023-04-20T06:28:18;2.10;;;1.90;;
57573;SDS011;68988;49.000;21.242;2023-04-20T06:30:43;2.95;;;1.80;;
57573;SDS011;68988;49.000;21.242;2023-04-20T06:33:09;2.50;;;1.65;;
57573;SDS011;68988;49.000;21.242;2023-04-20T06:35:40;1.95;;;1.80;;
57573;SDS011;68988;49.000;21.242;2023-04-20T06:38:06;3.90;;;1.70;;
57573;SDS011;68988;49.000;21.242;2023-04-20T06:40:31;6.55;;;1.95;;
57573;SDS011;68988;49.000;21.242;2023-04-20T06:42:56;3.78;;;1.90;;
57573;SDS011;68988;49.000;21.242;2023-04-20T06:45:22;6.35;;;1.92;;
57573;SDS011;68988;49.000;21.242;2023-04-20T06:47:47;3.55;;;1.75;;
57573;SDS011;68988;49.000;21.242;2023-04-20T06:50:13;2.33;;;1.90;;
57573;SDS011;68988;49.000;21.242;2023-04-20T06:52:38;3.75;;;2.00;;
57573;SDS011;68988;49.000;21.242;2023-04-20T06:55:05;8.43;;;2.25;;
57573;SDS011;68988;49.000;21.242;2023-04-20T06:57:31;8.65;;;2.15;;
57573;SDS011;68988;49.000;21.242;2023-04-20T06:59:56;9.32;;;1.85;;
57573;SDS011;68988;49.000;21.242;2023-04-20T07:02:23;5.97;;;1.98;;
57573;SDS011;68988;49.000;21.242;2023-04-20T07:04:49;9.40;;;1.88;;
57573;SDS011;68988;49.000;21.242;2023-04-20T07:07:14;8.25;;;2.00;;
57573;SDS011;68988;49.000;21.242;2023-04-20T07:09:40;3.88;;;1.73;;
57573;SDS011;68988;49.000;21.242;2023-04-20T07:12:06;6.13;;;2.03;;
57573;SDS011;68988;49.000;21.242;2023-04-20T07:14:32;4.70;;;1.85;;
57573;SDS011;68988;49.000;21.242;2023-04-20T07:16:57;8.73;;;1.77;;
57573;SDS011;68988;49.000;21.242;2023-04-20T07:19:22;6.05;;;1.77;;
57573;SDS011;68988;49.000;21.242;2023-04-20T07:21:48;5.07;;;1.90;;
57573;SDS011;68988;49.000;21.242;2023-04-20T07:24:13;7.80;;;1.92;;
57573;SDS011;68988;49.000;21.242;2023-04-20T07:26:38;5.35;;;1.90;;
57573;SDS011;68988;49.000;21.242;2023-04-20T07:29:04;7.50;;;2.30;;
57573;SDS011;68988;49.000;21.242;2023-04-20T07:31:29;7.35;;;2.13;;
57573;SDS011;68988;49.000;21.242;2023-04-20T07:33:54;2.83;;;1.88;;
57573;SDS011;68988;49.000;21.242;2023-04-20T07:36:20;3.58;;;1.60;;
57573;SDS011;68988;49.000;21.242;2023-04-20T07:38:46;3.72;;;2.00;;
57573;SDS011;68988;49.000;21.242;2023-04-20T07:41:14;6.47;;;1.88;;
57573;SDS011;68988;49.000;21.242;2023-04-20T07:43:40;3.35;;;1.65;;
57573;SDS011;68988;49.000;21.242;2023-04-20T07:46:05;2.75;;;2.10;;
57573;SDS011;68988;49.000;21.242;2023-04-20T07:48:35;2.85;;;1.90;;
57573;SDS011;68988;49.000;21.242;2023-04-20T07:51:00;2.75;;;1.90;;
57573;SDS011;68988;49.000;21.242;2023-04-20T07:53:26;2.03;;;1.80;;
57573;SDS011;68988;49.000;21.242;2023-04-20T07:55:53;4.45;;;1.83;;
57573;SDS011;68988;49.000;21.242;2023-04-20T07:58:18;5.00;;;1.77;;
57573;SDS011;68988;49.000;21.242;2023-04-20T08:00:45;4.65;;;1.95;;
57573;SDS011;68988;49.000;21.242;2023-04-20T08:03:11;3.97;;;1.83;;
57573;SDS011;68988;49.000;21.242;2023-04-20T08:05:37;6.63;;;1.95;;
57573;SDS011;68988;49.000;21.242;2023-04-20T08:08:02;9.05;;;2.03;;
57573;SDS011;68988;49.000;21.242;2023-04-20T08:10:28;8.32;;;2.20;;
57573;SDS011;68988;49.000;21.242;2023-04-20T08:12:53;6.45;;;2.47;;
57573;SDS011;68988;49.000;21.242;2023-04-20T08:15:19;13.13;;;2.10;;
57573;SDS011;68988;49.000;21.242;2023-04-20T08:17:44;17.65;;;2.20;;
57573;SDS011;68988;49.000;21.242;2023-04-20T08:20:09;8.90;;;2.20;;
57573;SDS011;68988;49.000;21.242;2023-04-20T08:22:35;10.88;;;2.53;;
57573;SDS011;68988;49.000;21.242;2023-04-20T08:25:00;15.23;;;2.00;;
57573;SDS011;68988;49.000;21.242;2023-04-20T08:27:26;8.88;;;2.40;;
57573;SDS011;68988;49.000;21.242;2023-04-20T08:29:53;9.88;;;2.50;;
57573;SDS011;68988;49.000;21.242;2023-04-20T08:32:19;9.52;;;1.85;;
57573;SDS011;68988;49.000;21.242;2023-04-20T08:34:46;6.10;;;2.03;;
57573;SDS011;68988;49.000;21.242;2023-04-20T08:37:12;8.48;;;2.25;;
57573;SDS011;68988;49.000;21.242;2023-04-20T08:39:38;8.20;;;2.50;;
57573;SDS011;68988;49.000;21.242;2023-04-20T08:42:04;5.95;;;2.33;;
57573;SDS011;68988;49.000;21.242;2023-04-20T08:44:30;8.80;;;2.35;;
57573;SDS011;68988;49.000;21.242;2023-04-20T08:46:55;6.03;;;2.10;;
57573;SDS011;68988;49.000;21.242;2023-04-20T08:49:21;10.98;;;2.58;;
57573;SDS011;68988;49.000;21.242;2023-04-20T08:51:47;13.73;;;2.33;;
57573;SDS011;68988;49.000;21.242;2023-04-20T08:54:12;9.85;;;2.80;;
57573;SDS011;68988;49.000;21.242;2023-04-20T08:56:39;11.35;;;2.42;;
57573;SDS011;68988;49.000;21.242;2023-04-20T08:59:07;6.85;;;2.10;;
57573;SDS011;68988;49.000;21.242;2023-04-20T09:01:36;15.93;;;2.50;;
57573;SDS011;68988;49.000;21.242;2023-04-20T09:04:21;13.40;;;2.40;;
57573;SDS011;68988;49.000;21.242;2023-04-20T09:06:49;6.53;;;2.40;;
57573;SDS011;68988;49.000;21.242;2023-04-20T09:09:18;7.07;;;2.30;;
57573;SDS011;68988;49.000;21.242;2023-04-20T09:11:44;12.68;;;2.10;;
57573;SDS011;68988;49.000;21.242;2023-04-20T09:14:11;7.75;;;2.22;;
57573;SDS011;68988;49.000;21.242;2023-04-20T09:16:48;4.38;;;2.35;;
57573;SDS011;68988;49.000;21.242;2023-04-20T09:19:19;6.05;;;2.28;;
57573;SDS011;68988;49.000;21.242;2023-04-20T09:21:49;5.43;;;2.17;;
57573;SDS011;68988;49.000;21.242;2023-04-20T09:24:18;11.68;;;2.38;;
57573;SDS011;68988;49.000;21.242;2023-04-20T09:26:44;7.65;;;2.20;;
57573;SDS011;68988;49.000;21.242;2023-04-20T09:31:43;13.10;;;1.95;;
57573;SDS011;68988;49.000;21.242;2023-04-20T09:34:08;7.28;;;1.95;;
57573;SDS011;68988;49.000;21.242;2023-04-20T09:36:41;3.63;;;2.65;;
57573;SDS011;68988;49.000;21.242;2023-04-20T09:39:10;8.13;;;2.38;;
57573;SDS011;68988;49.000;21.242;2023-04-20T09:41:37;3.13;;;1.83;;
57573;SDS011;68988;49.000;21.242;2023-04-20T09:44:04;6.28;;;1.85;;
57573;SDS011;68988;49.000;21.242;2023-04-20T09:46:31;7.40;;;2.20;;
57573;SDS011;68988;49.000;21.242;2023-04-20T09:48:59;19.20;;;2.40;;
57573;SDS011;68988;49.000;21.242;2023-04-20T09:51:26;9.23;;;2.67;;
57573;SDS011;68988;49.000;21.242;2023-04-20T09:53:55;4.85;;;2.38;;
57573;SDS011;68988;49.000;21.242;2023-04-20T09:56:22;4.07;;;2.15;;
57573;SDS011;68988;49.000;21.242;2023-04-20T09:58:49;7.20;;;2.60;;
57573;SDS011;68988;49.000;21.242;2023-04-20T10:01:15;15.48;;;2.78;;
57573;SDS011;68988;49.000;21.242;2023-04-20T10:03:41;29.05;;;2.78;;
57573;SDS011;68988;49.000;21.242;2023-04-20T10:06:26;17.55;;;2.40;;
57573;SDS011;68988;49.000;21.242;2023-04-20T10:08:53;6.28;;;2.60;;
57573;SDS011;68988;49.000;21.242;2023-04-20T10:11:38;22.95;;;2.53;;
57573;SDS011;68988;49.000;21.242;2023-04-20T10:16:44;9.68;;;2.60;;
57573;SDS011;68988;49.000;21.242;2023-04-20T10:19:11;11.07;;;2.70;;
57573;SDS011;68988;49.000;21.242;2023-04-20T10:21:44;11.07;;;2.28;;
57573;SDS011;68988;49.000;21.242;2023-04-20T10:24:11;14.73;;;2.78;;
57573;SDS011;68988;49.000;21.242;2023-04-20T10:29:02;7.25;;;2.30;;
57573;SDS011;68988;49.000;21.242;2023-04-20T10:31:35;4.78;;;2.28;;
57573;SDS011;68988;49.000;21.242;2023-04-20T10:34:01;10.88;;;2.40;;
57573;SDS011;68988;49.000;21.242;2023-04-20T10:36:27;16.33;;;2.83;;
57573;SDS011;68988;49.000;21.242;2023-04-20T10:38:53;5.95;;;2.03;;
57573;SDS011;68988;49.000;21.242;2023-04-20T10:41:19;7.63;;;2.50;;
57573;SDS011;68988;49.000;21.242;2023-04-20T10:43:45;16.25;;;2.33;;
57573;SDS011;68988;49.000;21.242;2023-04-20T10:46:14;12.82;;;2.60;;
57573;SDS011;68988;49.000;21.242;2023-04-20T10:51:18;9.00;;;2.10;;
57573;SDS011;68988;49.000;21.242;2023-04-20T10:53:44;5.35;;;1.85;;
57573;SDS011;68988;49.000;21.242;2023-04-20T10:56:10;5.88;;;2.05;;
57573;SDS011;68988;49.000;21.242;2023-04-20T10:58:35;11.70;;;2.33;;
57573;SDS011;68988;49.000;21.242;2023-04-20T11:01:04;9.15;;;2.30;;
57573;SDS011;68988;49.000;21.242;2023-04-20T11:03:30;9.57;;;2.42;;
57573;SDS011;68988;49.000;21.242;2023-04-20T11:05:58;18.30;;;3.15;;
57573;SDS011;68988;49.000;21.242;2023-04-20T11:11:21;15.23;;;3.10;;
57573;SDS011;68988;49.000;21.242;2023-04-20T11:13:51;16.98;;;3.60;;
57573;SDS011;68988;49.000;21.242;2023-04-20T11:16:28;13.85;;;3.08;;
57573;SDS011;68988;49.000;21.242;2023-04-20T11:18:54;24.20;;;3.72;;
57573;SDS011;68988;49.000;21.242;2023-04-20T11:21:20;16.10;;;3.75;;
57573;SDS011;68988;49.000;21.242;2023-04-20T11:23:48;13.30;;;3.00;;
57573;SDS011;68988;49.000;21.242;2023-04-20T11:26:14;16.17;;;3.10;;
57573;SDS011;68988;49.000;21.242;2023-04-20T11:28:52;11.90;;;3.30;;
57573;SDS011;68988;49.000;21.242;2023-04-20T11:31:18;25.98;;;3.83;;
57573;SDS011;68988;49.000;21.242;2023-04-20T11:33:44;13.95;;;3.33;;
57573;SDS011;68988;49.000;21.242;2023-04-20T11:36:17;16.05;;;3.85;;
57573;SDS011;68988;49.000;21.242;2023-04-20T11:38:44;11.98;;;3.30;;
57573;SDS011;68988;49.000;21.242;2023-04-20T11:41:10;14.60;;;3.40;;
57573;SDS011;68988;49.000;21.242;2023-04-20T11:43:35;13.82;;;3.20;;
57573;SDS011;68988;49.000;21.242;2023-04-20T11:46:01;12.85;;;3.80;;
57573;SDS011;68988;49.000;21.242;2023-04-20T11:48:29;9.50;;;3.55;;
57573;SDS011;68988;49.000;21.242;2023-04-20T11:50:55;19.40;;;3.83;;
57573;SDS011;68988;49.000;21.242;2023-04-20T11:53:21;11.40;;;3.47;;
57573;SDS011;68988;49.000;21.242;2023-04-20T11:55:46;22.92;;;3.63;;
57573;SDS011;68988;49.000;21.242;2023-04-20T11:58:12;10.27;;;3.50;;
57573;SDS011;68988;49.000;21.242;2023-04-20T12:00:37;15.52;;;3.20;;
57573;SDS011;68988;49.000;21.242;2023-04-20T12:03:02;19.30;;;3.20;;
57573;SDS011;68988;49.000;21.242;2023-04-20T12:05:28;22.77;;;3.40;;
57573;SDS011;68988;49.000;21.242;2023-04-20T12:07:53;16.95;;;3.30;;
57573;SDS011;68988;49.000;21.242;2023-04-20T12:10:19;10.80;;;3.35;;
57573;SDS011;68988;49.000;21.242;2023-04-20T12:12:44;13.77;;;3.00;;
57573;SDS011;68988;49.000;21.242;2023-04-20T12:15:10;12.23;;;3.00;;
57573;SDS011;68988;49.000;21.242;2023-04-20T12:17:36;13.15;;;3.03;;
57573;SDS011;68988;49.000;21.242;2023-04-20T12:20:02;17.60;;;3.00;;
57573;SDS011;68988;49.000;21.242;2023-04-20T12:22:30;7.50;;;2.80;;
57573;SDS011;68988;49.000;21.242;2023-04-20T12:24:55;9.02;;;2.97;;
57573;SDS011;68988;49.000;21.242;2023-04-20T12:27:22;13.77;;;3.08;;
57573;SDS011;68988;49.000;21.242;2023-04-20T12:29:49;11.98;;;3.28;;
57573;SDS011;68988;49.000;21.242;2023-04-20T12:32:15;11.90;;;3.00;;
57573;SDS011;68988;49.000;21.242;2023-04-20T12:34:40;6.75;;;2.92;;
57573;SDS011;68988;49.000;21.242;2023-04-20T12:37:06;9.35;;;3.08;;
57573;SDS011;68988;49.000;21.242;2023-04-20T12:39:31;9.10;;;3.30;;
57573;SDS011;68988;49.000;21.242;2023-04-20T12:41:56;7.75;;;2.90;;
57573;SDS011;68988;49.000;21.242;2023-04-20T12:44:22;14.90;;;3.25;;
57573;SDS011;68988;49.000;21.242;2023-04-20T12:46:47;9.40;;;3.10;;
57573;SDS011;68988;49.000;21.242;2023-04-20T12:49:12;9.73;;;2.80;;
57573;SDS011;68988;49.000;21.242;2023-04-20T12:51:38;8.75;;;2.80;;
57573;SDS011;68988;49.000;21.242;2023-04-20T12:54:03;5.40;;;3.00;;
57573;SDS011;68988;49.000;21.242;2023-04-20T12:56:29;7.65;;;3.00;;
57573;SDS011;68988;49.000;21.242;2023-04-20T12:58:54;12.02;;;2.80;;
57573;SDS011;68988;49.000;21.242;2023-04-20T13:01:19;9.68;;;2.50;;
57573;SDS011;68988;49.000;21.242;2023-04-20T13:03:45;17.23;;;2.80;;
57573;SDS011;68988;49.000;21.242;2023-04-20T13:06:11;5.25;;;2.85;;
57573;SDS011;68988;49.000;21.242;2023-04-20T13:08:36;5.13;;;2.78;;
57573;SDS011;68988;49.000;21.242;2023-04-20T13:11:02;10.88;;;2.85;;
57573;SDS011;68988;49.000;21.242;2023-04-20T13:13:28;6.72;;;2.65;;
57573;SDS011;68988;49.000;21.242;2023-04-20T13:15:53;6.15;;;2.70;;
57573;SDS011;68988;49.000;21.242;2023-04-20T13:18:18;3.88;;;2.47;;
57573;SDS011;68988;49.000;21.242;2023-04-20T13:20:44;7.55;;;2.42;;
57573;SDS011;68988;49.000;21.242;2023-04-20T13:23:10;4.40;;;2.67;;
57573;SDS011;68988;49.000;21.242;2023-04-20T13:25:35;4.85;;;2.22;;
57573;SDS011;68988;49.000;21.242;2023-04-20T13:28:02;4.40;;;2.20;;
57573;SDS011;68988;49.000;21.242;2023-04-20T13:30:29;4.22;;;2.72;;
57573;SDS011;68988;49.000;21.242;2023-04-20T13:32:54;5.70;;;2.90;;
57573;SDS011;68988;49.000;21.242;2023-04-20T13:35:20;6.28;;;2.70;;
57573;SDS011;68988;49.000;21.242;2023-04-20T13:37:46;4.65;;;2.40;;
57573;SDS011;68988;49.000;21.242;2023-04-20T13:40:11;5.20;;;2.90;;
57573;SDS011;68988;49.000;21.242;2023-04-20T13:42:37;6.22;;;2.65;;
57573;SDS011;68988;49.000;21.242;2023-04-20T13:45:03;12.02;;;2.75;;
57573;SDS011;68988;49.000;21.242;2023-04-20T13:47:29;10.65;;;2.50;;
57573;SDS011;68988;49.000;21.242;2023-04-20T13:49:55;12.43;;;2.60;;
57573;SDS011;68988;49.000;21.242;2023-04-20T13:52:20;14.02;;;2.45;;
57573;SDS011;68988;49.000;21.242;2023-04-20T13:54:46;11.52;;;2.70;;
57573;SDS011;68988;49.000;21.242;2023-04-20T13:57:11;4.10;;;2.55;;
57573;SDS011;68988;49.000;21.242;2023-04-20T13:59:37;7.32;;;2.53;;
57573;SDS011;68988;49.000;21.242;2023-04-20T14:02:02;3.70;;;2.05;;
57573;SDS011;68988;49.000;21.242;2023-04-20T14:04:28;16.40;;;2.72;;
57573;SDS011;68988;49.000;21.242;2023-04-20T14:06:53;14.95;;;2.70;;
57573;SDS011;68988;49.000;21.242;2023-04-20T14:09:19;8.57;;;2.70;;
57573;SDS011;68988;49.000;21.242;2023-04-20T14:11:45;13.88;;;2.55;;
57573;SDS011;68988;49.000;21.242;2023-04-20T14:14:10;12.32;;;2.55;;
57573;SDS011;68988;49.000;21.242;2023-04-20T14:16:42;9.05;;;2.45;;
57573;SDS011;68988;49.000;21.242;2023-04-20T14:19:08;8.35;;;2.47;;
57573;SDS011;68988;49.000;21.242;2023-04-20T14:21:34;6.20;;;2.40;;
57573;SDS011;68988;49.000;21.242;2023-04-20T14:23:59;9.43;;;2.90;;
57573;SDS011;68988;49.000;21.242;2023-04-20T14:26:25;3.97;;;2.45;;
57573;SDS011;68988;49.000;21.242;2023-04-20T14:28:51;7.57;;;2.40;;
57573;SDS011;68988;49.000;21.242;2023-04-20T14:31:18;8.13;;;2.25;;
57573;SDS011;68988;49.000;21.242;2023-04-20T14:33:43;4.70;;;2.30;;
57573;SDS011;68988;49.000;21.242;2023-04-20T14:36:09;7.40;;;2.50;;
57573;SDS011;68988;49.000;21.242;2023-04-20T14:38:34;11.40;;;2.67;;